createdAt,value
2018-05-11T00:00:50.112Z,986.177
2018-05-11T00:02:50.307Z,986.182
2018-05-11T00:04:49.716Z,986.200
2018-05-11T00:06:49.967Z,986.223
2018-05-11T00:08:50.095Z,986.235
2018-05-11T00:10:50.236Z,986.244
2018-05-11T00:12:50.371Z,986.251
2018-05-11T00:14:50.543Z,986.239
2018-05-11T00:16:49.895Z,986.226
2018-05-11T00:18:50.042Z,986.211
2018-05-11T00:20:50.223Z,986.201
2018-05-11T00:22:50.388Z,986.197
2018-05-11T00:24:50.559Z,986.203
2018-05-11T00:26:49.744Z,986.241
2018-05-11T00:28:49.888Z,986.269
2018-05-11T00:30:50.196Z,986.275
2018-05-11T00:32:50.302Z,986.281
2018-05-11T00:34:49.721Z,986.297
2018-05-11T00:36:50.009Z,986.323
2018-05-11T00:38:50.138Z,986.340
2018-05-11T00:40:50.287Z,986.341
2018-05-11T00:42:50.402Z,986.331
2018-05-11T00:44:50.547Z,986.326
2018-05-11T00:46:49.789Z,986.320
2018-05-11T00:48:49.961Z,986.325
2018-05-11T00:50:50.100Z,986.338
2018-05-11T00:52:50.274Z,986.337
2018-05-11T00:54:50.407Z,986.354
2018-05-11T00:56:50.606Z,986.395
2018-05-11T00:58:49.709Z,986.410
2018-05-11T01:00:49.849Z,986.445
2018-05-11T01:02:50.030Z,986.473
2018-05-11T01:04:50.386Z,986.510
2018-05-11T01:06:49.738Z,986.524
2018-05-11T01:08:49.860Z,986.547
2018-05-11T01:10:50.078Z,986.545
2018-05-11T01:12:50.179Z,986.547
2018-05-11T01:14:50.277Z,986.569
2018-05-11T01:16:50.783Z,986.576
2018-05-11T01:18:50.122Z,986.591
2018-05-11T01:20:50.285Z,986.593
2018-05-11T01:22:50.466Z,986.600
2018-05-11T01:24:50.612Z,986.617
2018-05-11T01:26:49.901Z,986.615
2018-05-11T01:28:50.083Z,986.642
2018-05-11T01:30:50.253Z,986.652
2018-05-11T01:32:50.393Z,986.657
2018-05-11T01:34:49.731Z,986.656
2018-05-11T01:36:50.035Z,986.665
2018-05-11T01:38:50.141Z,986.664
2018-05-11T01:40:50.285Z,986.668
2018-05-11T01:42:50.406Z,986.664
2018-05-11T01:44:50.593Z,986.663
2018-05-11T01:46:49.946Z,986.669
2018-05-11T01:48:50.365Z,986.642
2018-05-11T01:50:49.740Z,986.642
2018-05-11T01:52:49.845Z,986.628
2018-05-11T01:54:49.957Z,986.639
2018-05-11T01:56:50.248Z,986.675
2018-05-11T01:58:50.439Z,986.686
2018-05-11T02:00:50.597Z,986.687
2018-05-11T02:02:49.783Z,986.684
2018-05-11T02:04:50.297Z,986.681
2018-05-11T02:06:50.511Z,986.686
2018-05-11T02:08:49.758Z,986.692
2018-05-11T02:10:49.889Z,986.693
2018-05-11T02:12:50.148Z,986.676
2018-05-11T02:14:50.336Z,986.690
2018-05-11T02:16:50.566Z,986.690
2018-05-11T02:18:49.708Z,986.678
2018-05-11T02:20:49.824Z,986.674
2018-05-11T02:22:49.968Z,986.672
2018-05-11T02:24:50.201Z,986.688
2018-05-11T02:26:50.451Z,986.686
2018-05-11T02:28:49.657Z,986.690
2018-05-11T02:30:49.859Z,986.688
2018-05-11T02:32:50.184Z,986.685
2018-05-11T02:34:50.641Z,986.689
2018-05-11T02:36:49.908Z,986.690
2018-05-11T02:38:50.216Z,986.675
2018-05-11T02:40:50.389Z,986.638
2018-05-11T02:42:49.621Z,986.624
2018-05-11T02:44:49.797Z,986.609
2018-05-11T02:46:50.088Z,986.604
2018-05-11T02:48:50.342Z,986.602
2018-05-11T02:50:50.456Z,986.549
2018-05-11T02:52:49.675Z,986.549
2018-05-11T02:54:49.809Z,986.518
2018-05-11T02:56:50.054Z,986.495
2018-05-11T02:58:50.249Z,986.510
2018-05-11T03:00:50.425Z,986.514
2018-05-11T03:02:49.682Z,986.525
2018-05-11T03:04:49.987Z,986.550
2018-05-11T03:06:50.279Z,986.550
2018-05-11T03:08:50.505Z,986.582
2018-05-11T03:10:50.660Z,986.600
2018-05-11T03:12:49.932Z,986.607
2018-05-11T03:14:50.078Z,986.641
2018-05-11T03:16:50.461Z,986.644
2018-05-11T03:18:50.592Z,986.674
2018-05-11T03:20:49.794Z,986.712
2018-05-11T03:22:49.928Z,986.712
2018-05-11T03:24:50.054Z,986.789
2018-05-11T03:26:50.387Z,986.821
2018-05-11T03:28:50.545Z,986.818
2018-05-11T03:30:49.660Z,986.788
2018-05-11T03:32:49.834Z,986.776
2018-05-11T03:34:50.269Z,986.779
2018-05-11T03:36:50.528Z,986.799
2018-05-11T03:38:49.676Z,986.810
2018-05-11T03:40:49.770Z,986.812
2018-05-11T03:42:49.879Z,986.815
2018-05-11T03:44:50.019Z,986.803
2018-05-11T03:46:50.306Z,986.801
2018-05-11T03:48:50.471Z,986.821
2018-05-11T03:50:49.677Z,986.836
2018-05-11T03:52:49.854Z,986.836
2018-05-11T03:54:50.037Z,986.848
2018-05-11T03:56:50.266Z,986.860
2018-05-11T03:58:50.397Z,986.888
2018-05-11T04:00:50.552Z,986.937
2018-05-11T04:02:49.694Z,986.950
2018-05-11T04:04:50.000Z,986.979
2018-05-11T04:06:50.181Z,986.994
2018-05-11T04:08:50.040Z,987.009
2018-05-11T04:10:50.178Z,987.031
2018-05-11T04:12:50.365Z,987.031
2018-05-11T04:14:50.536Z,987.042
2018-05-11T04:16:49.895Z,987.032
2018-05-11T04:18:50.058Z,987.071
2018-05-11T04:20:50.669Z,987.087
2018-05-11T04:22:50.020Z,987.097
2018-05-11T04:24:50.192Z,987.103
2018-05-11T04:26:49.974Z,987.092
2018-05-11T04:28:50.093Z,987.075
2018-05-11T04:30:50.223Z,987.057
2018-05-11T04:32:50.377Z,987.077
2018-05-11T04:34:49.829Z,987.092
2018-05-11T04:36:50.085Z,987.113
2018-05-11T04:38:50.221Z,987.127
2018-05-11T04:40:50.312Z,987.128
2018-05-11T04:42:50.429Z,987.136
2018-05-11T04:44:50.568Z,987.137
2018-05-11T04:46:49.842Z,987.138
2018-05-11T04:48:49.979Z,987.128
2018-05-11T04:50:50.099Z,987.137
2018-05-11T04:52:50.327Z,987.128
2018-05-11T04:54:50.483Z,987.126
2018-05-11T04:56:49.748Z,987.121
2018-05-11T04:58:49.874Z,987.128
2018-05-11T05:00:50.025Z,987.148
2018-05-11T05:02:50.304Z,987.150
2018-05-11T05:04:49.627Z,987.159
2018-05-11T05:06:49.967Z,987.144
2018-05-11T05:08:50.170Z,987.141
2018-05-11T05:10:50.324Z,987.157
2018-05-11T05:12:50.475Z,987.163
2018-05-11T05:14:50.601Z,987.180
2018-05-11T05:16:49.838Z,987.206
2018-05-11T05:18:50.033Z,987.244
2018-05-11T05:20:50.108Z,987.266
2018-05-11T05:22:50.261Z,987.271
2018-05-11T05:24:50.412Z,987.286
2018-05-11T05:26:49.657Z,987.304
2018-05-11T05:28:49.789Z,987.317
2018-05-11T05:30:50.007Z,987.322
2018-05-11T05:32:50.187Z,987.330
2018-05-11T05:34:50.560Z,987.333
2018-05-11T05:36:50.259Z,987.329
2018-05-11T05:38:50.376Z,987.328
2018-05-11T05:40:50.480Z,987.328
2018-05-11T05:42:50.585Z,987.329
2018-05-11T05:44:49.698Z,987.347
2018-05-11T05:46:49.989Z,987.345
2018-05-11T05:48:50.151Z,987.355
2018-05-11T05:50:50.285Z,987.375
2018-05-11T05:52:50.509Z,987.390
2018-05-11T05:54:49.650Z,987.402
2018-05-11T05:56:49.929Z,987.399
2018-05-11T05:58:50.026Z,987.409
2018-05-11T06:00:50.217Z,987.425
2018-05-11T06:02:50.354Z,987.438
2018-05-11T06:04:49.778Z,987.449
2018-05-11T06:06:50.000Z,987.445
2018-05-11T06:08:50.270Z,987.432
2018-05-11T06:10:50.495Z,987.401
2018-05-11T06:12:50.038Z,987.367
2018-05-11T06:14:50.163Z,987.336
2018-05-11T06:16:50.466Z,987.341
2018-05-11T06:18:49.628Z,987.362
2018-05-11T06:20:49.768Z,987.371
2018-05-11T06:22:49.955Z,987.378
2018-05-11T06:24:50.453Z,987.388
2018-05-11T06:26:49.952Z,987.408
2018-05-11T06:28:50.152Z,987.411
2018-05-11T06:30:50.259Z,987.396
2018-05-11T06:32:50.404Z,987.404
2018-05-11T06:34:49.724Z,987.416
2018-05-11T06:36:49.922Z,987.450
2018-05-11T06:38:50.070Z,987.459
2018-05-11T06:40:50.217Z,987.470
2018-05-11T06:42:50.424Z,987.473
2018-05-11T06:44:49.611Z,987.480
2018-05-11T06:46:49.810Z,987.500
2018-05-11T06:48:50.106Z,987.509
2018-05-11T06:50:50.239Z,987.541
2018-05-11T06:52:50.464Z,987.561
2018-05-11T06:54:49.654Z,987.592
2018-05-11T06:56:49.917Z,987.623
2018-05-11T06:58:50.106Z,987.616
2018-05-11T07:00:50.222Z,987.617
2018-05-11T07:02:50.300Z,987.609
2018-05-11T07:04:49.720Z,987.604
2018-05-11T07:06:49.917Z,987.599
2018-05-11T07:08:50.027Z,987.573
2018-05-11T07:10:50.155Z,987.583
2018-05-11T07:12:50.277Z,987.585
2018-05-11T07:14:50.478Z,987.587
2018-05-11T07:16:49.724Z,987.570
2018-05-11T07:18:49.893Z,987.550
2018-05-11T07:20:50.049Z,987.531
2018-05-11T07:22:50.173Z,987.521
2018-05-11T07:24:50.331Z,987.509
2018-05-11T07:26:49.678Z,987.491
2018-05-11T07:28:49.810Z,987.472
2018-05-11T07:30:49.995Z,987.461
2018-05-11T07:32:50.134Z,987.468
2018-05-11T07:34:50.752Z,987.482
2018-05-11T07:36:50.298Z,987.494
2018-05-11T07:38:50.478Z,987.507
2018-05-11T07:40:50.565Z,987.512
2018-05-11T07:42:49.712Z,987.525
2018-05-11T07:44:49.789Z,987.528
2018-05-11T07:46:50.120Z,987.554
2018-05-11T07:48:50.253Z,987.560
2018-05-11T07:50:50.445Z,987.548
2018-05-11T07:52:50.534Z,987.551
2018-05-11T07:54:49.667Z,987.554
2018-05-11T07:56:49.848Z,987.546
2018-05-11T07:58:50.037Z,987.536
2018-05-11T08:00:50.182Z,987.535
2018-05-11T08:02:50.401Z,987.530
2018-05-11T08:04:49.927Z,987.499
2018-05-11T08:06:50.162Z,987.490
2018-05-11T08:08:50.278Z,987.461
2018-05-11T08:10:50.454Z,987.443
2018-05-11T08:12:50.586Z,987.419
2018-05-11T08:14:49.797Z,987.405
2018-05-11T08:16:50.105Z,987.372
2018-05-11T08:18:50.231Z,987.377
2018-05-11T08:20:50.320Z,987.367
2018-05-11T08:22:50.439Z,987.330
2018-05-11T08:24:50.617Z,987.314
2018-05-11T08:26:50.517Z,987.289
2018-05-11T08:28:50.312Z,987.266
2018-05-11T08:30:50.431Z,987.277
2018-05-11T08:32:49.689Z,987.270
2018-05-11T08:34:50.098Z,987.295
2018-05-11T08:36:50.419Z,987.306
2018-05-11T08:38:50.532Z,987.306
2018-05-11T08:40:49.642Z,987.313
2018-05-11T08:42:49.727Z,987.324
2018-05-11T08:44:49.807Z,987.369
2018-05-11T08:46:50.106Z,987.411
2018-05-11T08:48:50.242Z,987.403
2018-05-11T08:50:50.376Z,987.407
2018-05-11T08:52:50.541Z,987.389
2018-05-11T08:54:49.676Z,987.378
2018-05-11T08:56:49.902Z,987.365
2018-05-11T08:58:49.997Z,987.350
2018-05-11T09:00:50.176Z,987.342
2018-05-11T09:02:50.342Z,987.349
2018-05-11T09:04:49.632Z,987.340
2018-05-11T09:06:49.927Z,987.317
2018-05-11T09:08:50.034Z,987.270
2018-05-11T09:10:50.149Z,987.254
2018-05-11T09:12:50.273Z,987.242
2018-05-11T09:14:50.436Z,987.243
2018-05-11T09:16:49.711Z,987.242
2018-05-11T09:18:49.823Z,987.251
2018-05-11T09:20:50.090Z,987.281
2018-05-11T09:22:50.230Z,987.280
2018-05-11T09:24:50.377Z,987.284
2018-05-11T09:26:50.570Z,987.279
2018-05-11T09:28:49.698Z,987.282
2018-05-11T09:30:49.882Z,987.256
2018-05-11T09:32:50.025Z,987.232
2018-05-11T09:34:50.621Z,987.216
2018-05-11T09:36:49.810Z,987.209
2018-05-11T09:38:49.893Z,987.179
2018-05-11T09:40:50.024Z,987.149
2018-05-11T09:42:50.111Z,987.106
2018-05-11T09:44:50.258Z,987.054
2018-05-11T09:46:50.639Z,987.039
2018-05-11T09:48:49.766Z,987.053
2018-05-11T09:50:50.020Z,987.061
2018-05-11T09:52:50.157Z,987.099
2018-05-11T09:54:50.358Z,987.116
2018-05-11T09:56:50.642Z,987.131
2018-05-11T09:58:49.783Z,987.148
2018-05-11T10:00:50.149Z,987.133
2018-05-11T10:02:50.598Z,987.125
2018-05-11T10:04:50.026Z,987.104
2018-05-11T10:06:50.289Z,987.070
2018-05-11T10:08:50.376Z,987.070
2018-05-11T10:10:50.584Z,987.072
2018-05-11T10:12:49.816Z,987.046
2018-05-11T10:14:49.941Z,987.031
2018-05-11T10:16:50.133Z,987.031
2018-05-11T10:18:50.239Z,987.036
2018-05-11T10:20:50.434Z,987.079
2018-05-11T10:22:49.742Z,987.075
2018-05-11T10:24:49.966Z,987.056
2018-05-11T10:26:50.166Z,987.050
2018-05-11T10:28:50.494Z,987.037
2018-05-11T10:30:50.125Z,987.024
2018-05-11T10:32:50.377Z,987.022
2018-05-11T10:34:49.837Z,987.013
2018-05-11T10:36:50.107Z,986.967
2018-05-11T10:38:50.329Z,986.960
2018-05-11T10:40:50.491Z,986.967
2018-05-11T10:42:50.742Z,986.967
2018-05-11T10:44:49.988Z,986.924
2018-05-11T10:46:50.222Z,986.888
2018-05-11T10:48:50.657Z,986.887
2018-05-11T10:50:50.197Z,986.878
2018-05-11T10:52:50.375Z,986.845
2018-05-11T10:54:50.613Z,986.834
2018-05-11T10:56:49.829Z,986.847
2018-05-11T10:58:50.011Z,986.846
2018-05-11T11:00:50.151Z,986.851
2018-05-11T11:02:50.284Z,986.872
2018-05-11T11:04:49.752Z,986.860
2018-05-11T11:06:50.019Z,986.843
2018-05-11T11:08:50.178Z,986.843
2018-05-11T11:10:50.314Z,986.833
2018-05-11T11:12:50.449Z,986.798
2018-05-11T11:14:49.746Z,986.801
2018-05-11T11:16:50.059Z,986.831
2018-05-11T11:18:50.167Z,986.836
2018-05-11T11:20:50.317Z,986.797
2018-05-11T11:22:50.435Z,986.786
2018-05-11T11:24:50.554Z,986.778
2018-05-11T11:26:49.788Z,986.800
2018-05-11T11:28:49.896Z,986.788
2018-05-11T11:30:50.034Z,986.752
2018-05-11T11:32:50.124Z,986.718
2018-05-11T11:34:50.525Z,986.686
2018-05-11T11:36:49.802Z,986.651
2018-05-11T11:38:49.904Z,986.601
2018-05-11T11:40:50.017Z,986.576
2018-05-11T11:42:50.142Z,986.572
2018-05-11T11:44:50.285Z,986.548
2018-05-11T11:46:50.568Z,986.534
2018-05-11T11:48:49.638Z,986.516
2018-05-11T11:50:49.695Z,986.516
2018-05-11T11:52:49.804Z,986.495
2018-05-11T11:54:49.914Z,986.484
2018-05-11T11:56:50.095Z,986.446
2018-05-11T11:58:50.188Z,986.377
2018-05-11T12:00:50.338Z,986.358
2018-05-11T12:02:49.799Z,986.342
2018-05-11T12:04:50.038Z,986.325
2018-05-11T12:06:50.212Z,986.301
2018-05-11T12:08:50.483Z,986.279
2018-05-11T12:10:49.885Z,986.292
2018-05-11T12:12:50.025Z,986.312
2018-05-11T12:14:50.134Z,986.326
2018-05-11T12:16:50.266Z,986.305
2018-05-11T12:18:50.340Z,986.305
2018-05-11T12:20:50.477Z,986.265
2018-05-11T12:22:50.559Z,986.266
2018-05-11T12:24:49.712Z,986.262
2018-05-11T12:26:49.937Z,986.285
2018-05-11T12:28:50.024Z,986.301
2018-05-11T12:30:50.339Z,986.304
2018-05-11T12:32:50.401Z,986.295
2018-05-11T12:34:49.878Z,986.274
2018-05-11T12:36:50.235Z,986.262
2018-05-11T12:38:50.382Z,986.237
2018-05-11T12:40:50.549Z,986.215
2018-05-11T12:42:49.692Z,986.215
2018-05-11T12:44:49.780Z,986.186
2018-05-11T12:46:50.010Z,986.162
2018-05-11T12:48:50.164Z,986.139
2018-05-11T12:50:50.265Z,986.104
2018-05-11T12:52:50.527Z,986.062
2018-05-11T12:54:49.803Z,986.031
2018-05-11T12:56:49.967Z,986.013
2018-05-11T12:58:50.071Z,986.003
2018-05-11T13:00:50.239Z,985.992
2018-05-11T13:02:50.346Z,985.987
2018-05-11T13:04:49.769Z,985.988
2018-05-11T13:06:49.972Z,985.985
2018-05-11T13:08:50.113Z,985.988
2018-05-11T13:10:50.213Z,985.943
2018-05-11T13:12:50.544Z,985.913
2018-05-11T13:14:49.832Z,985.868
2018-05-11T13:16:50.018Z,985.866
2018-05-11T13:18:50.154Z,985.813
2018-05-11T13:20:50.489Z,985.789
2018-05-11T13:22:50.295Z,985.793
2018-05-11T13:24:50.438Z,985.803
2018-05-11T13:26:49.745Z,985.803
2018-05-11T13:28:49.941Z,985.786
2018-05-11T13:30:50.029Z,985.774
2018-05-11T13:32:50.121Z,985.749
2018-05-11T13:34:50.460Z,985.716
2018-05-11T13:36:49.700Z,985.714
2018-05-11T13:38:49.801Z,985.672
2018-05-11T13:40:49.930Z,985.672
2018-05-11T13:42:50.030Z,985.645
2018-05-11T13:44:50.120Z,985.629
2018-05-11T13:46:50.381Z,985.607
2018-05-11T13:48:50.502Z,985.576
2018-05-11T13:50:49.648Z,985.585
2018-05-11T13:52:49.809Z,985.559
2018-05-11T13:54:49.901Z,985.550
2018-05-11T13:56:50.160Z,985.464
2018-05-11T13:58:50.288Z,985.429
2018-05-11T14:00:50.415Z,985.399
2018-05-11T14:02:50.655Z,985.399
2018-05-11T14:04:50.016Z,985.380
2018-05-11T14:06:50.237Z,985.380
2018-05-11T14:08:50.389Z,985.370
2018-05-11T14:10:50.492Z,985.318
2018-05-11T14:12:49.625Z,985.323
2018-05-11T14:14:49.751Z,985.288
2018-05-11T14:16:50.032Z,985.255
2018-05-11T14:18:50.194Z,985.226
2018-05-11T14:20:50.287Z,985.228
2018-05-11T14:22:50.412Z,985.253
2018-05-11T14:24:50.641Z,985.230
2018-05-11T14:26:50.155Z,985.193
2018-05-11T14:28:50.329Z,985.114
2018-05-11T14:30:50.503Z,985.065
2018-05-11T14:32:50.580Z,984.996
2018-05-11T14:34:49.912Z,984.959
2018-05-11T14:36:50.163Z,984.993
2018-05-11T14:38:50.286Z,984.995
2018-05-11T14:40:50.415Z,984.978
2018-05-11T14:42:50.573Z,985.011
2018-05-11T14:44:49.678Z,985.006
2018-05-11T14:46:49.931Z,984.990
2018-05-11T14:48:50.037Z,984.975
2018-05-11T14:50:50.238Z,984.941
2018-05-11T14:52:50.444Z,984.893
2018-05-11T14:54:50.580Z,984.875
2018-05-11T14:56:49.833Z,984.834
2018-05-11T14:58:50.299Z,984.781
2018-05-11T15:00:49.830Z,984.788
2018-05-11T15:02:49.967Z,984.789
2018-05-11T15:04:50.357Z,984.793
2018-05-11T15:06:50.570Z,984.784
2018-05-11T15:08:49.724Z,984.784
2018-05-11T15:10:49.886Z,984.767
2018-05-11T15:12:49.994Z,984.742
2018-05-11T15:14:50.136Z,984.727
2018-05-11T15:16:50.383Z,984.740
2018-05-11T15:18:50.471Z,984.740
2018-05-11T15:20:50.593Z,984.765
2018-05-11T15:22:49.681Z,984.734
2018-05-11T15:24:49.792Z,984.708
2018-05-11T15:26:49.941Z,984.647
2018-05-11T15:28:50.029Z,984.632
2018-05-11T15:30:50.246Z,984.628
2018-05-11T15:32:50.464Z,984.616
2018-05-11T15:34:49.901Z,984.579
2018-05-11T15:36:50.229Z,984.564
2018-05-11T15:38:50.316Z,984.539
2018-05-11T15:40:50.459Z,984.520
2018-05-11T15:42:50.545Z,984.468
2018-05-11T15:44:49.688Z,984.468
2018-05-11T15:46:49.915Z,984.418
2018-05-11T15:48:50.076Z,984.392
2018-05-11T15:50:50.155Z,984.367
2018-05-11T15:52:50.279Z,984.365
2018-05-11T15:54:50.401Z,984.330
2018-05-11T15:56:49.664Z,984.327
2018-05-11T15:58:49.840Z,984.320
2018-05-11T16:00:49.960Z,984.276
2018-05-11T16:02:50.184Z,984.217
2018-05-11T16:04:50.497Z,984.187
2018-05-11T16:06:49.773Z,984.116
2018-05-11T16:08:49.982Z,984.065
2018-05-11T16:10:50.114Z,984.041
2018-05-11T16:12:50.728Z,984.056
2018-05-11T16:14:50.628Z,984.042
2018-05-11T16:16:49.936Z,983.993
2018-05-11T16:18:50.073Z,983.976
2018-05-11T16:20:50.215Z,983.927
2018-05-11T16:22:50.314Z,983.911
2018-05-11T16:24:50.435Z,983.892
2018-05-11T16:26:50.608Z,983.879
2018-05-11T16:28:49.782Z,983.856
2018-05-11T16:30:49.900Z,983.856
2018-05-11T16:32:50.038Z,983.827
2018-05-11T16:34:50.255Z,983.804
2018-05-11T16:36:50.540Z,983.788
2018-05-11T16:38:49.710Z,983.782
2018-05-11T16:40:49.849Z,983.782
2018-05-11T16:42:49.961Z,983.722
2018-05-11T16:44:50.099Z,983.719
2018-05-11T16:46:50.327Z,983.733
2018-05-11T16:48:50.437Z,983.733
2018-05-11T16:50:50.531Z,983.749
2018-05-11T16:52:49.745Z,983.780
2018-05-11T16:54:49.862Z,983.780
2018-05-11T16:56:50.084Z,983.780
2018-05-11T16:58:50.217Z,983.771
2018-05-11T17:00:50.305Z,983.744
2018-05-11T17:02:50.496Z,983.750
2018-05-11T17:04:49.762Z,983.755
2018-05-11T17:06:50.073Z,983.749
2018-05-11T17:08:50.153Z,983.735
2018-05-11T17:10:50.445Z,983.737
2018-05-11T17:12:50.552Z,983.719
2018-05-11T17:14:49.662Z,983.710
2018-05-11T17:16:49.982Z,983.701
2018-05-11T17:18:50.095Z,983.706
2018-05-11T17:20:50.237Z,983.696
2018-05-11T17:22:50.883Z,983.703
2018-05-11T17:24:49.739Z,983.685
2018-05-11T17:26:49.948Z,983.691
2018-05-11T17:28:50.107Z,983.706
2018-05-11T17:30:50.226Z,983.703
2018-05-11T17:32:50.434Z,983.701
2018-05-11T17:34:49.810Z,983.695
2018-05-11T17:36:50.164Z,983.696
2018-05-11T17:38:50.327Z,983.693
2018-05-11T17:40:50.459Z,983.688
2018-05-11T17:42:50.576Z,983.708
2018-05-11T17:44:49.739Z,983.708
2018-05-11T17:46:49.944Z,983.710
2018-05-11T17:48:50.082Z,983.699
2018-05-11T17:50:50.237Z,983.695
2018-05-11T17:52:50.338Z,983.683
2018-05-11T17:54:50.411Z,983.690
2018-05-11T17:56:49.694Z,983.707
2018-05-11T17:58:49.804Z,983.709
2018-05-11T18:00:49.978Z,983.740
2018-05-11T18:02:50.109Z,983.743
2018-05-11T18:04:50.572Z,983.764
2018-05-11T18:06:49.815Z,983.774
2018-05-11T18:08:49.928Z,983.779
2018-05-11T18:10:50.147Z,983.779
2018-05-11T18:12:50.260Z,983.790
2018-05-11T18:14:50.402Z,983.805
2018-05-11T18:16:49.654Z,983.840
2018-05-11T18:18:49.747Z,983.845
2018-05-11T18:20:49.850Z,983.855
2018-05-11T18:22:50.035Z,983.860
2018-05-11T18:24:50.144Z,983.853
2018-05-11T18:26:50.397Z,983.861
2018-05-11T18:28:50.440Z,983.864
2018-05-11T18:30:50.806Z,983.875
2018-05-11T18:32:50.135Z,983.933
2018-05-11T18:34:50.474Z,983.946
2018-05-11T18:36:49.745Z,983.960
2018-05-11T18:38:49.840Z,983.957
2018-05-11T18:40:49.920Z,983.958
2018-05-11T18:42:50.171Z,983.951
2018-05-11T18:44:50.340Z,983.949
2018-05-11T18:46:49.691Z,983.974
2018-05-11T18:48:49.833Z,983.990
2018-05-11T18:50:49.937Z,983.998
2018-05-11T18:52:50.528Z,984.005
2018-05-11T18:54:50.234Z,984.036
2018-05-11T18:56:50.415Z,984.049
2018-05-11T18:58:50.548Z,984.070
2018-05-11T19:00:49.747Z,984.085
2018-05-11T19:02:49.852Z,984.092
2018-05-11T19:04:50.220Z,984.143
2018-05-11T19:06:50.406Z,984.172
2018-05-11T19:08:50.598Z,984.205
2018-05-11T19:10:49.806Z,984.238
2018-05-11T19:12:49.998Z,984.295
2018-05-11T19:14:50.226Z,984.338
2018-05-11T19:16:50.542Z,984.367
2018-05-11T19:18:49.656Z,984.416
2018-05-11T19:20:49.758Z,984.454
2018-05-11T19:22:49.925Z,984.478
2018-05-11T19:24:50.121Z,984.502
2018-05-11T19:26:50.351Z,984.533
2018-05-11T19:28:50.473Z,984.554
2018-05-11T19:30:50.545Z,984.591
2018-05-11T19:32:49.655Z,984.622
2018-05-11T19:34:49.961Z,984.659
2018-05-11T19:36:50.242Z,984.663
2018-05-11T19:38:50.296Z,984.672
2018-05-11T19:40:50.441Z,984.690
2018-05-11T19:42:50.592Z,984.706
2018-05-11T19:44:49.685Z,984.744
2018-05-11T19:46:49.968Z,984.762
2018-05-11T19:48:50.139Z,984.787
2018-05-11T19:50:50.279Z,984.800
2018-05-11T19:52:50.445Z,984.836
2018-05-11T19:54:50.563Z,984.871
2018-05-11T19:56:49.838Z,984.883
2018-05-11T19:58:49.999Z,984.875
2018-05-11T20:00:50.188Z,984.846
2018-05-11T20:02:50.283Z,984.844
2018-05-11T20:04:50.605Z,984.858
2018-05-11T20:06:49.860Z,984.859
2018-05-11T20:08:50.042Z,984.863
2018-05-11T20:10:50.372Z,984.899
2018-05-11T20:12:49.792Z,984.897
2018-05-11T20:14:49.942Z,984.900
2018-05-11T20:16:50.173Z,984.896
2018-05-11T20:18:50.343Z,984.881
2018-05-11T20:20:50.533Z,984.902
2018-05-11T20:22:49.782Z,984.929
2018-05-11T20:24:50.006Z,984.942
2018-05-11T20:26:50.449Z,984.943
2018-05-11T20:28:50.605Z,984.940
2018-05-11T20:30:49.834Z,984.942
2018-05-11T20:32:50.113Z,984.938
2018-05-11T20:34:50.077Z,984.933
2018-05-11T20:36:50.272Z,984.930
2018-05-11T20:38:50.381Z,984.937
2018-05-11T20:40:50.546Z,984.956
2018-05-11T20:42:49.705Z,984.960
2018-05-11T20:44:49.803Z,984.955
2018-05-11T20:46:50.097Z,984.965
2018-05-11T20:48:50.251Z,984.973
2018-05-11T20:50:50.696Z,984.975
2018-05-11T20:52:50.292Z,984.980
2018-05-11T20:54:50.383Z,984.953
2018-05-11T20:56:49.651Z,984.921
2018-05-11T20:58:49.740Z,984.918
2018-05-11T21:00:49.812Z,984.876
2018-05-11T21:02:50.050Z,984.875
2018-05-11T21:04:50.573Z,984.868
2018-05-11T21:06:49.971Z,984.868
2018-05-11T21:08:50.077Z,984.867
2018-05-11T21:10:50.332Z,984.876
2018-05-11T21:12:49.642Z,984.863
2018-05-11T21:14:50.123Z,984.854
2018-05-11T21:16:50.098Z,984.843
2018-05-11T21:18:50.240Z,984.831
2018-05-11T21:20:50.392Z,984.834
2018-05-11T21:22:50.502Z,984.841
2018-05-11T21:24:49.613Z,984.846
2018-05-11T21:26:49.803Z,984.830
2018-05-11T21:28:49.992Z,984.813
2018-05-11T21:30:50.199Z,984.813
2018-05-11T21:32:50.388Z,984.839
2018-05-11T21:34:49.666Z,984.850
2018-05-11T21:36:49.925Z,984.867
2018-05-11T21:38:50.117Z,984.878
2018-05-11T21:40:50.390Z,984.891
2018-05-11T21:42:49.877Z,984.885
2018-05-11T21:44:50.030Z,984.879
2018-05-11T21:46:50.306Z,984.896
2018-05-11T21:48:50.477Z,984.905
2018-05-11T21:50:49.666Z,984.906
2018-05-11T21:52:49.753Z,984.911
2018-05-11T21:54:49.885Z,984.885
2018-05-11T21:56:50.365Z,984.890
2018-05-11T21:58:50.482Z,984.865
2018-05-11T22:00:49.644Z,984.869
2018-05-11T22:02:49.829Z,984.865
2018-05-11T22:04:50.331Z,984.867
2018-05-11T22:06:49.779Z,984.862
2018-05-11T22:08:50.100Z,984.889
2018-05-11T22:10:50.451Z,984.891
2018-05-11T22:12:49.915Z,984.894
2018-05-11T22:14:50.054Z,984.889
2018-05-11T22:16:50.295Z,984.882
2018-05-11T22:18:50.463Z,984.859
2018-05-11T22:20:50.614Z,984.824
2018-05-11T22:22:49.791Z,984.801
2018-05-11T22:24:49.949Z,984.796
2018-05-11T22:26:50.240Z,984.758
2018-05-11T22:28:50.429Z,984.713
2018-05-11T22:30:49.705Z,984.700
2018-05-11T22:32:50.135Z,984.682
2018-05-11T22:34:50.543Z,984.668
2018-05-11T22:36:49.894Z,984.644
2018-05-11T22:38:50.013Z,984.653
2018-05-11T22:40:50.221Z,984.653
2018-05-11T22:42:50.395Z,984.642
2018-05-11T22:44:50.520Z,984.614
2018-05-11T22:46:49.805Z,984.601
2018-05-11T22:48:50.112Z,984.584
2018-05-11T22:50:50.250Z,984.579
2018-05-11T22:52:50.427Z,984.596
2018-05-11T22:54:49.648Z,984.607
2018-05-11T22:56:50.000Z,984.601
2018-05-11T22:58:50.185Z,984.615
2018-05-11T23:00:50.435Z,984.628
2018-05-11T23:02:49.597Z,984.627
2018-05-11T23:04:50.119Z,984.607
2018-05-11T23:06:50.447Z,984.590
2018-05-11T23:08:49.638Z,984.561
2018-05-11T23:10:49.805Z,984.557
2018-05-11T23:12:50.081Z,984.546
2018-05-11T23:14:50.293Z,984.535
2018-05-11T23:16:49.683Z,984.531
2018-05-11T23:18:49.854Z,984.519
2018-05-11T23:20:50.061Z,984.536
2018-05-11T23:22:50.299Z,984.542
2018-05-11T23:24:50.442Z,984.527
2018-05-11T23:26:49.746Z,984.517
2018-05-11T23:28:49.926Z,984.492
2018-05-11T23:30:50.165Z,984.460
2018-05-11T23:32:50.243Z,984.450
2018-05-11T23:34:50.614Z,984.421
2018-05-11T23:36:49.846Z,984.397
2018-05-11T23:38:50.011Z,984.347
2018-05-11T23:40:50.221Z,984.317
2018-05-11T23:42:50.349Z,984.291
2018-05-11T23:44:50.585Z,984.268
2018-05-11T23:46:49.949Z,984.255
2018-05-11T23:48:50.215Z,984.252
2018-05-11T23:50:50.347Z,984.270
2018-05-11T23:52:50.525Z,984.272
2018-05-11T23:54:49.749Z,984.261
2018-05-11T23:56:50.121Z,984.259
2018-05-11T23:58:50.365Z,984.235
